Time;durP1;ratioP1;P1;durP2;ratioP2;P2;SDS_P1;SDS_P2;PMS_P1;PMS_P2;Temp;Humidity;BMP_temperature;BMP_pressure;BME280_temperature;BME280_humidity;BME280_pressure;Samples;Min_cycle;Max_cycle;Signal;HPM_P1;HPM_P2
2022/05/30 00:01:15;;;;;;;2.30;1.90;;;;;;;;;;4163216;34;20198;-69
2022/05/30 00:34:56;;;;;;;5.68;2.30;;;;;;;;;;4373479;28;20139;-63
2022/05/30 00:37:25;;;;;;;3.33;2.33;;;;;;;;;;4227308;33;20516;-64
2022/05/30 00:39:52;;;;;;;6.30;2.40;;;;;;;;;;4228450;33;20121;-64
2022/05/30 00:42:21;;;;;;;3.97;2.12;;;;;;;;;;4206418;34;20113;-65
2022/05/30 00:44:48;;;;;;;2.80;2.30;;;;;;;;;;4215828;33;20200;-65
2022/05/30 00:47:16;;;;;;;4.57;2.17;;;;;;;;;;4233910;33;20117;-65
2022/05/30 00:49:45;;;;;;;2.85;2.47;;;;;;;;;;4220909;33;20097;-66
2022/05/30 00:52:15;;;;;;;3.78;2.60;;;;;;;;;;4231096;33;20121;-66
2022/05/30 00:55:00;;;;;;;3.30;2.80;;;;;;;;;;4206729;34;20102;-67
2022/05/30 00:57:29;;;;;;;4.25;2.60;;;;;;;;;;4207138;34;20106;-67
2022/05/30 00:59:59;;;;;;;3.42;2.20;;;;;;;;;;4206929;34;20133;-67
2022/05/30 01:02:31;;;;;;;3.58;2.67;;;;;;;;;;4220038;34;20188;-67
2022/05/30 01:07:43;;;;;;;3.28;2.55;;;;;;;;;;4219771;34;20205;-67
2022/05/30 01:10:21;;;;;;;3.40;3.03;;;;;;;;;;4214157;33;20497;-63
2022/05/30 01:12:52;;;;;;;4.65;2.87;;;;;;;;;;4233701;33;20101;-64
2022/05/30 01:15:27;;;;;;;3.37;2.70;;;;;;;;;;4220863;33;20116;-63
2022/05/30 01:18:12;;;;;;;;;;;;;;;;;;4221035;33;20096;-63
2022/05/30 01:20:57;;;;;;;5.07;3.10;;;;;;;;;;4232093;33;20357;-63
2022/05/30 01:23:36;;;;;;;6.18;2.90;;;;;;;;;;4220567;33;20532;-63
2022/05/30 01:26:17;;;;;;;5.05;3.28;;;;;;;;;;4233440;33;20407;-63
2022/05/30 01:28:49;;;;;;;4.43;3.10;;;;;;;;;;4232647;33;20119;-64
2022/05/30 01:31:16;;;;;;;3.97;3.58;;;;;;;;;;4233603;33;20183;-64
2022/05/30 01:33:42;;;;;;;4.40;3.10;;;;;;;;;;4233391;33;20453;-64
2022/05/30 01:36:09;;;;;;;4.25;3.20;;;;;;;;;;4233091;33;20124;-63
2022/05/30 01:38:35;;;;;;;3.35;2.95;;;;;;;;;;4219393;34;20112;-63
2022/05/30 01:41:01;;;;;;;4.80;3.00;;;;;;;;;;4206476;34;20454;-63
2022/05/30 01:43:27;;;;;;;4.50;3.10;;;;;;;;;;4219551;34;20110;-63
2022/05/30 01:45:53;;;;;;;6.07;3.22;;;;;;;;;;4219224;34;20124;-63
2022/05/30 01:48:19;;;;;;;3.72;3.20;;;;;;;;;;4219356;34;20743;-63
2022/05/30 01:50:47;;;;;;;5.40;3.20;;;;;;;;;;4219186;34;20109;-63
2022/05/30 01:53:13;;;;;;;3.87;3.28;;;;;;;;;;4219256;34;20090;-62
2022/05/30 01:55:39;;;;;;;4.35;3.28;;;;;;;;;;4219216;34;20097;-62
2022/05/30 01:58:06;;;;;;;3.87;3.20;;;;;;;;;;4219109;34;20116;-64
2022/05/30 02:00:33;;;;;;;6.68;3.00;;;;;;;;;;4206242;34;20113;-64
2022/05/30 02:02:59;;;;;;;5.30;2.83;;;;;;;;;;4206403;34;20114;-64
2022/05/30 02:05:25;;;;;;;6.32;3.17;;;;;;;;;;4219282;34;20522;-64
2022/05/30 02:07:51;;;;;;;4.12;3.15;;;;;;;;;;4219158;34;20192;-64
2022/05/30 02:10:17;;;;;;;3.78;2.60;;;;;;;;;;4206493;33;20113;-64
2022/05/30 02:12:43;;;;;;;3.37;2.78;;;;;;;;;;4233136;33;20125;-63
2022/05/30 02:15:09;;;;;;;3.22;2.87;;;;;;;;;;4233353;33;20114;-65
2022/05/30 02:17:35;;;;;;;2.45;2.25;;;;;;;;;;4233137;33;20457;-64
2022/05/30 02:20:02;;;;;;;5.00;2.50;;;;;;;;;;4233302;33;20126;-65
2022/05/30 02:22:29;;;;;;;4.25;2.40;;;;;;;;;;4233114;33;20541;-64
2022/05/30 02:24:56;;;;;;;3.95;2.40;;;;;;;;;;4233034;33;20163;-64
2022/05/30 02:27:22;;;;;;;3.72;2.62;;;;;;;;;;4233105;33;20110;-65
2022/05/30 02:29:48;;;;;;;3.92;3.15;;;;;;;;;;4224677;33;20101;-64
2022/05/30 02:32:15;;;;;;;3.75;2.20;;;;;;;;;;4211232;34;20115;-64
2022/05/30 02:37:26;;;;;;;5.60;3.57;;;;;;;;;;4218892;34;20097;-63
2022/05/30 02:39:52;;;;;;;3.85;2.30;;;;;;;;;;4218552;34;20187;-65
2022/05/30 02:42:18;;;;;;;2.65;2.30;;;;;;;;;;4218822;34;20109;-64
2022/05/30 02:44:44;;;;;;;2.72;2.53;;;;;;;;;;4206102;34;20101;-64
2022/05/30 02:47:11;;;;;;;5.57;2.47;;;;;;;;;;4218762;34;20097;-66
2022/05/30 02:49:37;;;;;;;2.60;2.40;;;;;;;;;;4194636;34;20601;-64
2022/05/30 02:52:03;;;;;;;3.12;2.47;;;;;;;;;;4218831;34;20121;-64
2022/05/30 02:54:30;;;;;;;2.58;2.12;;;;;;;;;;4218866;34;20204;-65
2022/05/30 02:56:58;;;;;;;3.53;2.50;;;;;;;;;;4205709;34;20085;-64
2022/05/30 02:59:25;;;;;;;2.30;2.10;;;;;;;;;;4218717;34;20117;-65
2022/05/30 03:01:51;;;;;;;3.08;2.25;;;;;;;;;;4218655;34;20137;-64
2022/05/30 03:04:19;;;;;;;2.20;2.00;;;;;;;;;;4218682;34;20103;-64
2022/05/30 03:06:45;;;;;;;2.55;2.17;;;;;;;;;;4218584;34;20533;-64
2022/05/30 03:09:12;;;;;;;4.60;2.37;;;;;;;;;;4205867;34;20113;-63
2022/05/30 03:11:38;;;;;;;2.87;2.30;;;;;;;;;;4218474;34;20517;-62
2022/05/30 03:14:04;;;;;;;4.72;2.12;;;;;;;;;;4218518;34;20121;-62
2022/05/30 03:16:30;;;;;;;4.47;2.15;;;;;;;;;;4218538;34;20542;-63
2022/05/30 03:18:56;;;;;;;3.65;2.58;;;;;;;;;;4205866;34;20132;-62
2022/05/30 03:21:22;;;;;;;3.25;2.30;;;;;;;;;;4218520;34;20517;-63
2022/05/30 03:23:48;;;;;;;2.65;2.30;;;;;;;;;;4218740;34;20132;-63
2022/05/30 03:26:16;;;;;;;2.92;2.20;;;;;;;;;;4218365;34;20125;-63
2022/05/30 03:28:42;;;;;;;2.67;2.17;;;;;;;;;;4218495;34;20109;-63
2022/05/30 03:31:09;;;;;;;3.45;2.50;;;;;;;;;;4218274;34;20133;-61
2022/05/30 03:33:36;;;;;;;3.10;2.17;;;;;;;;;;4218299;34;20184;-61
2022/05/30 03:36:03;;;;;;;4.30;2.47;;;;;;;;;;4218431;34;20124;-60
2022/05/30 03:38:29;;;;;;;4.40;2.50;;;;;;;;;;4179121;34;20152;-63
2022/05/30 03:40:55;;;;;;;3.28;2.53;;;;;;;;;;4203525;34;20225;-62
2022/05/30 03:43:21;;;;;;;2.70;2.25;;;;;;;;;;4202767;34;20565;-61
2022/05/30 03:45:47;;;;;;;4.93;2.58;;;;;;;;;;4201471;34;20118;-61
2022/05/30 03:48:15;;;;;;;3.40;2.20;;;;;;;;;;4204277;34;20125;-62
2022/05/30 03:50:42;;;;;;;4.18;2.25;;;;;;;;;;4203983;34;20558;-61
2022/05/30 03:53:08;;;;;;;3.78;2.75;;;;;;;;;;4190966;34;20124;-61
2022/05/30 03:55:37;;;;;;;3.33;2.25;;;;;;;;;;4204344;34;20118;-61
2022/05/30 03:58:04;;;;;;;3.65;2.65;;;;;;;;;;4191702;34;20098;-60
2022/05/30 04:00:31;;;;;;;8.15;2.90;;;;;;;;;;4204395;34;20125;-62
2022/05/30 04:02:59;;;;;;;4.72;3.10;;;;;;;;;;4191185;34;20082;-66
2022/05/30 04:05:25;;;;;;;3.58;2.33;;;;;;;;;;4204475;34;20574;-63
2022/05/30 04:07:51;;;;;;;3.62;2.47;;;;;;;;;;4202740;34;20120;-65
2022/05/30 04:10:17;;;;;;;3.25;2.60;;;;;;;;;;4191041;34;20172;-68
2022/05/30 04:12:43;;;;;;;3.58;2.53;;;;;;;;;;4202624;34;20086;-64
2022/05/30 04:15:15;;;;;;;2.97;2.60;;;;;;;;;;4203415;34;20132;-63
2022/05/30 04:17:41;;;;;;;5.28;3.10;;;;;;;;;;4203908;34;20663;-64
2022/05/30 04:20:08;;;;;;;4.43;2.50;;;;;;;;;;4203912;34;20116;-63
2022/05/30 04:22:35;;;;;;;5.20;2.78;;;;;;;;;;4204163;34;20145;-63
2022/05/30 04:25:01;;;;;;;4.45;2.60;;;;;;;;;;4200899;34;20224;-64
2022/05/30 04:27:27;;;;;;;4.15;2.70;;;;;;;;;;4203806;34;20113;-64
2022/05/30 04:29:53;;;;;;;7.47;3.17;;;;;;;;;;4202524;34;20258;-65
2022/05/30 04:32:19;;;;;;;5.30;2.70;;;;;;;;;;4191218;34;20117;-64
2022/05/30 04:34:46;;;;;;;4.82;2.75;;;;;;;;;;4203759;34;20137;-64
2022/05/30 04:37:12;;;;;;;4.75;2.80;;;;;;;;;;4193009;34;20604;-64
2022/05/30 04:39:38;;;;;;;4.05;2.90;;;;;;;;;;4217675;34;20110;-64
2022/05/30 04:42:05;;;;;;;3.62;2.85;;;;;;;;;;4217622;34;20181;-63
2022/05/30 04:44:31;;;;;;;6.45;2.83;;;;;;;;;;4217678;34;20102;-62
2022/05/30 04:46:58;;;;;;;6.97;3.60;;;;;;;;;;4217657;34;20101;-64
2022/05/30 04:49:25;;;;;;;2.83;2.55;;;;;;;;;;4217644;34;20529;-63
2022/05/30 04:51:51;;;;;;;5.10;2.95;;;;;;;;;;4217545;34;20188;-63
2022/05/30 04:54:18;;;;;;;4.25;2.53;;;;;;;;;;4204918;34;20132;-63
2022/05/30 04:56:44;;;;;;;3.05;2.33;;;;;;;;;;4204931;34;20127;-63
2022/05/30 04:59:10;;;;;;;4.82;3.00;;;;;;;;;;4217442;34;20129;-63
2022/05/30 05:01:37;;;;;;;3.90;2.47;;;;;;;;;;4217417;34;20132;-63
2022/05/30 05:04:08;;;;;;;3.47;2.50;;;;;;;;;;4206570;34;20114;-63
2022/05/30 05:06:34;;;;;;;6.15;2.80;;;;;;;;;;4206649;34;20500;-62
2022/05/30 05:09:15;;;;;;;4.07;2.97;;;;;;;;;;4219667;34;20140;-63
2022/05/30 05:11:42;;;;;;;3.87;2.67;;;;;;;;;;4219727;34;20136;-64
2022/05/30 05:14:08;;;;;;;4.68;2.62;;;;;;;;;;4206495;34;20471;-63
2022/05/30 05:16:34;;;;;;;3.65;2.50;;;;;;;;;;4206879;34;20105;-63
2022/05/30 05:19:00;;;;;;;4.68;2.33;;;;;;;;;;4219575;34;20116;-67
2022/05/30 05:21:29;;;;;;;4.53;2.55;;;;;;;;;;4205641;34;20112;-64
2022/05/30 05:23:55;;;;;;;5.35;2.47;;;;;;;;;;4217998;34;20109;-63
2022/05/30 05:26:21;;;;;;;3.40;1.83;;;;;;;;;;4218113;34;20113;-64
2022/05/30 05:28:47;;;;;;;6.30;2.47;;;;;;;;;;4219338;34;20111;-64
2022/05/30 05:31:20;;;;;;;5.47;2.30;;;;;;;;;;4219325;34;20450;-65
2022/05/30 05:33:46;;;;;;;5.90;2.60;;;;;;;;;;4206300;34;20118;-73
2022/05/30 05:36:18;;;;;;;8.60;2.40;;;;;;;;;;4219368;34;20208;-64
2022/05/30 05:38:44;;;;;;;7.87;2.95;;;;;;;;;;4206705;34;20151;-70
2022/05/30 05:41:10;;;;;;;5.50;2.80;;;;;;;;;;4219573;34;20430;-66
2022/05/30 05:43:36;;;;;;;5.25;2.58;;;;;;;;;;4219318;34;20204;-63
2022/05/30 05:46:02;;;;;;;3.22;2.60;;;;;;;;;;4219304;34;20117;-63
2022/05/30 05:48:28;;;;;;;6.75;2.65;;;;;;;;;;4219171;34;20457;-64
2022/05/30 05:50:54;;;;;;;4.57;2.50;;;;;;;;;;4219477;34;20082;-64
2022/05/30 05:53:20;;;;;;;4.00;2.80;;;;;;;;;;4219242;34;20124;-64
2022/05/30 05:55:46;;;;;;;6.15;2.75;;;;;;;;;;4219223;34;20250;-64
2022/05/30 05:58:12;;;;;;;4.85;3.00;;;;;;;;;;4219120;34;20131;-64
2022/05/30 06:00:38;;;;;;;5.00;2.92;;;;;;;;;;4206288;34;20097;-64
2022/05/30 06:03:04;;;;;;;3.00;2.10;;;;;;;;;;4218984;34;20129;-64
2022/05/30 06:05:30;;;;;;;3.30;2.35;;;;;;;;;;4195073;34;20148;-64
2022/05/30 06:07:59;;;;;;;6.55;3.00;;;;;;;;;;4219295;34;20105;-65
2022/05/30 06:10:25;;;;;;;2.85;2.50;;;;;;;;;;4219374;34;20519;-64
2022/05/30 06:12:51;;;;;;;5.12;2.90;;;;;;;;;;4219049;34;20121;-64
2022/05/30 06:15:18;;;;;;;4.18;2.80;;;;;;;;;;4205444;34;20618;-64
2022/05/30 06:17:45;;;;;;;7.00;2.58;;;;;;;;;;4218957;34;20098;-64
2022/05/30 06:20:13;;;;;;;4.90;2.42;;;;;;;;;;4206209;34;20167;-63
2022/05/30 06:22:40;;;;;;;6.57;2.97;;;;;;;;;;4206404;34;20098;-63
2022/05/30 06:25:06;;;;;;;7.53;2.62;;;;;;;;;;4218940;34;20505;-64
2022/05/30 06:27:34;;;;;;;3.50;2.20;;;;;;;;;;4218927;34;20104;-64
2022/05/30 06:30:01;;;;;;;5.87;2.40;;;;;;;;;;4205900;34;20128;-64
2022/05/30 06:32:27;;;;;;;7.03;2.55;;;;;;;;;;4205939;34;20114;-64
2022/05/30 06:34:53;;;;;;;2.25;2.03;;;;;;;;;;4218937;34;20120;-64
2022/05/30 06:37:19;;;;;;;5.25;1.60;;;;;;;;;;4218778;34;20109;-61
2022/05/30 06:39:45;;;;;;;5.18;1.70;;;;;;;;;;4218820;34;20113;-63
2022/05/30 06:42:12;;;;;;;4.12;2.05;;;;;;;;;;4218724;34;20648;-64
2022/05/30 06:44:39;;;;;;;3.08;1.75;;;;;;;;;;4204820;33;20231;-63
2022/05/30 06:47:10;;;;;;;1.98;1.60;;;;;;;;;;4216616;33;20204;-64
2022/05/30 06:49:36;;;;;;;2.47;2.28;;;;;;;;;;4222290;33;20117;-65
2022/05/30 06:52:03;;;;;;;3.33;1.80;;;;;;;;;;4219381;33;20113;-65
2022/05/30 06:54:30;;;;;;;3.28;2.25;;;;;;;;;;4218773;34;20107;-64
2022/05/30 06:59:40;;;;;;;2.50;1.90;;;;;;;;;;4218374;33;20209;-62
2022/05/30 07:02:07;;;;;;;3.60;1.87;;;;;;;;;;4218468;34;20672;-63
2022/05/30 07:04:33;;;;;;;6.05;1.92;;;;;;;;;;4205403;34;20109;-64
2022/05/30 07:07:07;;;;;;;2.10;1.70;;;;;;;;;;4218527;34;20077;-65
2022/05/30 07:09:34;;;;;;;2.97;2.10;;;;;;;;;;4218684;34;20113;-62
2022/05/30 07:12:01;;;;;;;5.47;1.90;;;;;;;;;;4218464;34;20528;-64
2022/05/30 07:14:27;;;;;;;4.15;2.20;;;;;;;;;;4205818;34;20212;-59
2022/05/30 07:16:53;;;;;;;4.60;1.80;;;;;;;;;;4218520;34;20111;-64
2022/05/30 07:19:19;;;;;;;3.00;1.92;;;;;;;;;;4218672;34;20117;-62
2022/05/30 07:21:45;;;;;;;3.17;1.87;;;;;;;;;;4218528;34;20189;-63
2022/05/30 07:24:12;;;;;;;2.80;1.85;;;;;;;;;;4218393;34;20104;-63
2022/05/30 07:26:38;;;;;;;2.42;2.10;;;;;;;;;;4218542;34;20097;-62
2022/05/30 07:29:04;;;;;;;1.85;1.30;;;;;;;;;;4218440;34;20229;-64
2022/05/30 07:31:30;;;;;;;3.15;1.73;;;;;;;;;;4205302;34;20105;-61
2022/05/30 07:33:57;;;;;;;3.35;2.08;;;;;;;;;;4218257;34;20155;-64
2022/05/30 07:36:26;;;;;;;3.80;1.60;;;;;;;;;;4218371;34;20129;-64
2022/05/30 07:38:53;;;;;;;2.62;1.40;;;;;;;;;;4218438;34;20125;-64
2022/05/30 07:41:20;;;;;;;1.50;1.35;;;;;;;;;;4218308;34;20116;-66
2022/05/30 07:43:47;;;;;;;1.92;1.45;;;;;;;;;;4218310;34;20474;-64
2022/05/30 07:46:15;;;;;;;1.83;1.58;;;;;;;;;;4218298;34;20127;-65
2022/05/30 07:48:41;;;;;;;1.52;1.37;;;;;;;;;;4218342;34;20252;-63
2022/05/30 07:51:08;;;;;;;2.03;1.65;;;;;;;;;;4218477;34;20133;-64
2022/05/30 07:53:34;;;;;;;3.95;1.77;;;;;;;;;;4204223;33;20156;-64
2022/05/30 07:56:04;;;;;;;4.72;2.10;;;;;;;;;;4218760;33;20112;-64
2022/05/30 07:58:30;;;;;;;2.62;1.60;;;;;;;;;;4215826;34;20113;-63
2022/05/30 08:00:56;;;;;;;2.20;1.70;;;;;;;;;;4217764;34;20121;-63
2022/05/30 08:03:24;;;;;;;5.65;1.67;;;;;;;;;;4217619;34;20517;-64
2022/05/30 08:05:50;;;;;;;5.25;1.52;;;;;;;;;;4215887;34;20101;-65
2022/05/30 08:08:16;;;;;;;3.60;1.67;;;;;;;;;;4217619;34;20107;-65
2022/05/30 08:10:43;;;;;;;2.42;1.40;;;;;;;;;;4227747;33;20168;-66
2022/05/30 08:13:09;;;;;;;2.67;1.67;;;;;;;;;;4219818;33;20112;-64
2022/05/30 08:15:35;;;;;;;3.92;1.60;;;;;;;;;;4216533;33;20113;-63
2022/05/30 08:18:02;;;;;;;3.28;1.37;;;;;;;;;;4215695;33;20135;-64
2022/05/30 08:20:31;;;;;;;1.37;1.17;;;;;;;;;;4214803;33;20256;-64
2022/05/30 08:22:58;;;;;;;3.05;1.48;;;;;;;;;;4214771;33;20212;-63
2022/05/30 08:25:24;;;;;;;2.12;1.40;;;;;;;;;;4214369;33;20116;-62
2022/05/30 08:27:50;;;;;;;1.83;1.60;;;;;;;;;;4213338;34;20131;-63
2022/05/30 08:30:18;;;;;;;3.28;1.40;;;;;;;;;;4215856;33;20126;-63
2022/05/30 08:32:46;;;;;;;1.60;1.50;;;;;;;;;;4215961;33;20937;-63
2022/05/30 08:35:15;;;;;;;2.00;1.75;;;;;;;;;;4217429;33;20111;-60
2022/05/30 08:37:41;;;;;;;4.18;1.58;;;;;;;;;;4218109;33;20117;-63
2022/05/30 08:42:56;;;;;;;1.77;1.40;;;;;;;;;;4208732;34;20105;-62
2022/05/30 08:45:25;;;;;;;2.90;1.73;;;;;;;;;;4195567;34;20164;-64
2022/05/30 08:47:58;;;;;;;1.77;1.35;;;;;;;;;;4219656;34;20270;-64
2022/05/30 08:50:48;;;;;;;3.30;1.62;;;;;;;;;;4219994;34;20124;-63
2022/05/30 08:53:29;;;;;;;1.60;1.50;;;;;;;;;;4206918;34;20111;-64
2022/05/30 08:56:09;;;;;;;2.50;1.60;;;;;;;;;;4206998;34;20105;-63
2022/05/30 08:58:48;;;;;;;3.33;1.48;;;;;;;;;;4219977;34;20536;-63
2022/05/30 09:01:27;;;;;;;1.48;1.35;;;;;;;;;;4219751;34;20117;-64
2022/05/30 09:04:13;;;;;;;4.12;1.73;;;;;;;;;;4219739;34;20220;-65
2022/05/30 09:06:53;;;;;;;3.20;1.62;;;;;;;;;;4206687;34;20144;-64
2022/05/30 09:09:34;;;;;;;2.65;1.45;;;;;;;;;;4207008;34;20149;-66
2022/05/30 09:12:02;;;;;;;1.37;1.20;;;;;;;;;;4219278;34;20708;-65
2022/05/30 09:14:34;;;;;;;1.50;1.40;;;;;;;;;;4194570;34;20125;-67
2022/05/30 09:17:03;;;;;;;2.20;1.27;;;;;;;;;;4216096;33;20143;-65
2022/05/30 09:19:30;;;;;;;2.05;1.30;;;;;;;;;;4203596;34;20160;-65
2022/05/30 09:22:01;;;;;;;3.80;1.30;;;;;;;;;;4204222;33;20109;-65
2022/05/30 09:24:29;;;;;;;1.70;1.40;;;;;;;;;;4212115;34;20434;-66
2022/05/30 09:26:57;;;;;;;3.30;1.52;;;;;;;;;;4218906;33;20226;-64
2022/05/30 09:29:29;;;;;;;3.90;1.50;;;;;;;;;;4214948;34;20102;-62
2022/05/30 09:32:04;;;;;;;3.42;1.50;;;;;;;;;;4219501;33;20122;-64
2022/05/30 09:34:38;;;;;;;;;;;;;;;;;;4205787;34;20140;-64
2022/05/30 09:37:04;;;;;;;1.92;1.50;;;;;;;;;;4207560;34;19998;-64
2022/05/30 09:39:42;;;;;;;1.67;1.40;;;;;;;;;;4206931;34;20109;-65
2022/05/30 09:42:31;;;;;;;3.37;1.83;;;;;;;;;;4219254;34;20556;-64
2022/05/30 09:45:09;;;;;;;4.07;1.60;;;;;;;;;;4219184;34;20474;-63
2022/05/30 09:47:36;;;;;;;2.15;1.80;;;;;;;;;;4215346;34;20114;-62
2022/05/30 09:50:19;;;;;;;1.67;1.42;;;;;;;;;;4226267;33;20088;-63
2022/05/30 09:52:46;;;;;;;1.70;1.60;;;;;;;;;;4233332;33;20191;-62
2022/05/30 09:55:37;;;;;;;2.55;1.50;;;;;;;;;;4216287;33;20206;-63
2022/05/30 09:58:07;;;;;;;3.55;1.30;;;;;;;;;;4213378;33;20193;-63
2022/05/30 10:00:40;;;;;;;1.60;1.50;;;;;;;;;;4217801;33;20109;-63
2022/05/30 10:03:27;;;;;;;2.58;1.40;;;;;;;;;;4217960;34;20124;-62
2022/05/30 10:06:19;;;;;;;1.45;1.35;;;;;;;;;;4219382;33;20117;-68
2022/05/30 10:08:46;;;;;;;1.48;1.37;;;;;;;;;;4218353;34;20108;-63
2022/05/30 10:11:32;;;;;;;2.33;1.98;;;;;;;;;;4216382;34;20121;-64
2022/05/30 10:13:58;;;;;;;5.87;1.42;;;;;;;;;;4214031;34;20129;-64
2022/05/30 10:16:33;;;;;;;4.57;1.85;;;;;;;;;;4204109;34;20129;-61
2022/05/30 10:19:05;;;;;;;3.53;2.08;;;;;;;;;;4222836;33;20145;-62
2022/05/30 10:21:35;;;;;;;2.37;1.50;;;;;;;;;;4216371;33;20119;-63
2022/05/30 10:30:10;;;;;;;8.23;1.55;;;;;;;;;;4216278;34;20128;-62
2022/05/30 10:33:01;;;;;;;2.58;1.30;;;;;;;;;;4216988;34;20526;-64
2022/05/30 10:35:45;;;;;;;2.62;1.75;;;;;;;;;;4220409;33;20184;-61
2022/05/30 10:38:41;;;;;;;1.77;1.43;;;;;;;;;;4225094;33;20127;-65
2022/05/30 10:41:08;;;;;;;3.35;1.10;;;;;;;;;;4222031;33;20125;-67
2022/05/30 10:43:46;;;;;;;2.28;1.75;;;;;;;;;;4218513;34;20110;-64
2022/05/30 10:46:32;;;;;;;2.03;1.67;;;;;;;;;;4219384;33;20144;-64
2022/05/30 10:49:08;;;;;;;1.25;1.20;;;;;;;;;;4208049;34;20105;-68
2022/05/30 10:51:45;;;;;;;3.08;1.50;;;;;;;;;;4217614;34;20120;-63
2022/05/30 10:54:34;;;;;;;4.53;2.10;;;;;;;;;;4180350;34;20125;-64
2022/05/30 10:57:14;;;;;;;1.87;1.50;;;;;;;;;;4215927;34;20117;-64
2022/05/30 11:00:12;;;;;;;1.95;1.55;;;;;;;;;;4204771;34;20140;-64
2022/05/30 11:02:48;;;;;;;6.07;1.30;;;;;;;;;;4217370;34;20208;-63
2022/05/30 11:05:26;;;;;;;1.67;1.50;;;;;;;;;;4205858;34;20109;-64
2022/05/30 11:07:56;;;;;;;1.58;1.48;;;;;;;;;;4204247;34;20474;-63
2022/05/30 11:10:56;;;;;;;1.27;1.23;;;;;;;;;;4218749;33;20193;-63
2022/05/30 11:13:24;;;;;;;2.67;1.30;;;;;;;;;;4204486;34;20165;-65
2022/05/30 11:15:55;;;;;;;3.35;1.62;;;;;;;;;;4216623;33;20177;-61
2022/05/30 11:18:46;;;;;;;4.28;1.60;;;;;;;;;;4216887;34;20549;-63
2022/05/30 11:21:34;;;;;;;5.40;1.65;;;;;;;;;;4217070;34;20103;-64
2022/05/30 11:24:02;;;;;;;5.62;1.73;;;;;;;;;;4217216;33;20529;-62
2022/05/30 11:27:08;;;;;;;1.62;1.52;;;;;;;;;;4216463;34;20509;-64
2022/05/30 11:29:50;;;;;;;3.08;1.80;;;;;;;;;;4216355;34;20219;-64
2022/05/30 11:32:53;;;;;;;2.70;1.40;;;;;;;;;;4216544;33;20628;-62
2022/05/30 11:35:34;;;;;;;1.70;1.37;;;;;;;;;;4216700;33;20117;-64
2022/05/30 11:38:03;;;;;;;1.70;1.50;;;;;;;;;;4216592;33;20105;-63
2022/05/30 11:40:53;;;;;;;4.78;1.73;;;;;;;;;;4218455;33;20540;-64
2022/05/30 11:43:49;;;;;;;2.75;2.03;;;;;;;;;;4217046;34;20208;-62
2022/05/30 11:46:46;;;;;;;4.07;1.73;;;;;;;;;;4204595;34;20529;-62
2022/05/30 11:49:37;;;;;;;2.60;1.50;;;;;;;;;;4204486;34;20158;-62
2022/05/30 11:52:15;;;;;;;1.90;1.30;;;;;;;;;;4191443;34;20120;-64
2022/05/30 11:54:51;;;;;;;1.70;1.60;;;;;;;;;;4204250;34;20120;-63
2022/05/30 11:57:25;;;;;;;3.15;1.40;;;;;;;;;;4202913;34;20496;-61
2022/05/30 12:00:22;;;;;;;2.85;1.80;;;;;;;;;;4191615;34;20145;-63
2022/05/30 12:02:56;;;;;;;4.32;1.67;;;;;;;;;;4204244;34;20102;-62
2022/05/30 12:05:50;;;;;;;5.93;1.75;;;;;;;;;;4204201;34;20557;-62
2022/05/30 12:08:31;;;;;;;3.05;1.58;;;;;;;;;;4202913;34;20118;-63
2022/05/30 12:11:18;;;;;;;2.37;1.35;;;;;;;;;;4203390;34;20109;-64
2022/05/30 12:14:10;;;;;;;1.92;1.40;;;;;;;;;;4217182;34;20220;-63
2022/05/30 12:16:41;;;;;;;1.35;1.25;;;;;;;;;;4210369;34;20105;-64
2022/05/30 12:24:40;;;;;;;3.75;1.40;;;;;;;;;;4207234;34;20113;-61
2022/05/30 12:27:32;;;;;;;1.70;1.50;;;;;;;;;;4217681;34;20097;-64
2022/05/30 12:30:10;;;;;;;4.25;1.62;;;;;;;;;;4217768;34;20086;-61
2022/05/30 12:32:38;;;;;;;1.90;1.52;;;;;;;;;;4204732;34;20218;-63
2022/05/30 12:35:15;;;;;;;3.95;1.30;;;;;;;;;;4204905;34;20109;-61
2022/05/30 12:37:47;;;;;;;2.00;1.50;;;;;;;;;;4217690;34;20562;-64
2022/05/30 12:40:19;;;;;;;2.78;1.60;;;;;;;;;;4217757;34;20222;-63
2022/05/30 12:42:46;;;;;;;1.50;1.40;;;;;;;;;;4217617;34;20121;-63
2022/05/30 12:45:14;;;;;;;2.35;2.05;;;;;;;;;;4217942;34;20099;-62
2022/05/30 12:47:50;;;;;;;5.30;1.45;;;;;;;;;;4217696;34;20097;-62
2022/05/30 12:50:40;;;;;;;1.52;1.37;;;;;;;;;;4217720;34;20483;-64
2022/05/30 12:53:07;;;;;;;3.25;1.52;;;;;;;;;;4204497;34;20529;-62
2022/05/30 12:55:34;;;;;;;2.72;1.52;;;;;;;;;;4217521;34;20105;-63
2022/05/30 12:58:00;;;;;;;2.40;1.35;;;;;;;;;;4204561;34;20112;-62
2022/05/30 13:00:42;;;;;;;2.10;1.50;;;;;;;;;;4217604;34;20201;-63
2022/05/30 13:03:23;;;;;;;2.60;1.40;;;;;;;;;;4217316;34;20474;-63
2022/05/30 13:06:20;;;;;;;10.82;1.42;;;;;;;;;;4204524;34;20192;-62
2022/05/30 13:08:52;;;;;;;1.23;1.10;;;;;;;;;;4212509;34;20101;-63
2022/05/30 13:11:56;;;;;;;1.73;1.40;;;;;;;;;;4217301;34;20132;-63
2022/05/30 13:14:28;;;;;;;3.33;1.30;;;;;;;;;;4179328;34;20129;-63
2022/05/30 13:17:02;;;;;;;2.15;1.40;;;;;;;;;;4217386;34;20109;-63
2022/05/30 13:19:29;;;;;;;2.67;1.52;;;;;;;;;;4192972;34;20133;-62
2022/05/30 13:21:55;;;;;;;4.62;2.72;;;;;;;;;;4204523;34;20097;-63
2022/05/30 13:24:26;;;;;;;2.78;1.70;;;;;;;;;;4218383;34;20122;-64
2022/05/30 13:26:54;;;;;;;4.00;2.12;;;;;;;;;;4219252;34;20192;-64
2022/05/30 13:29:36;;;;;;;2.03;1.65;;;;;;;;;;4195126;34;20613;-64
2022/05/30 13:32:05;;;;;;;1.52;1.30;;;;;;;;;;4219241;34;20124;-64
2022/05/30 13:34:32;;;;;;;4.85;1.40;;;;;;;;;;4219392;34;20124;-64
2022/05/30 13:37:00;;;;;;;1.50;1.40;;;;;;;;;;4219393;34;20552;-63
2022/05/30 13:39:27;;;;;;;1.40;1.30;;;;;;;;;;4219480;34;20125;-64
2022/05/30 13:41:53;;;;;;;2.42;1.37;;;;;;;;;;4194994;34;20112;-62
2022/05/30 13:44:21;;;;;;;4.07;1.65;;;;;;;;;;4219247;34;20552;-64
2022/05/30 13:46:50;;;;;;;4.72;1.50;;;;;;;;;;4219213;34;20117;-63
2022/05/30 13:49:35;;;;;;;2.33;1.40;;;;;;;;;;4219226;34;20113;-62
2022/05/30 13:52:04;;;;;;;2.72;1.50;;;;;;;;;;4206140;34;20129;-63
2022/05/30 13:54:30;;;;;;;1.65;1.48;;;;;;;;;;4206436;34;20120;-63
2022/05/30 13:56:58;;;;;;;3.65;1.40;;;;;;;;;;4206487;34;20105;-64
2022/05/30 13:59:30;;;;;;;5.45;1.70;;;;;;;;;;4219246;34;20125;-65
2022/05/30 14:01:58;;;;;;;4.18;1.58;;;;;;;;;;4219098;34;20129;-63
2022/05/30 14:04:28;;;;;;;4.72;1.62;;;;;;;;;;4206345;34;20477;-64
2022/05/30 14:06:54;;;;;;;1.37;1.27;;;;;;;;;;4217527;34;20124;-64
2022/05/30 14:09:22;;;;;;;5.05;1.50;;;;;;;;;;4214732;34;20136;-63
2022/05/30 14:11:58;;;;;;;2.00;1.50;;;;;;;;;;4214908;34;20121;-64
2022/05/30 14:14:44;;;;;;;1.48;1.37;;;;;;;;;;4202053;34;20144;-64
2022/05/30 14:17:12;;;;;;;4.95;2.08;;;;;;;;;;4214789;34;20596;-64
2022/05/30 14:19:40;;;;;;;5.12;1.60;;;;;;;;;;4201695;34;20133;-65
2022/05/30 14:22:20;;;;;;;3.35;1.70;;;;;;;;;;4190270;34;20132;-64
2022/05/30 14:24:58;;;;;;;3.50;1.70;;;;;;;;;;4201846;34;20121;-63
2022/05/30 14:27:26;;;;;;;5.15;1.55;;;;;;;;;;4214849;34;20148;-65
2022/05/30 14:29:53;;;;;;;1.77;1.33;;;;;;;;;;4201626;34;20122;-65
2022/05/30 14:32:19;;;;;;;3.90;1.60;;;;;;;;;;4201469;34;20286;-65
2022/05/30 14:35:03;;;;;;;6.90;1.95;;;;;;;;;;4214627;33;20125;-65
2022/05/30 14:37:30;;;;;;;2.03;1.50;;;;;;;;;;4214604;34;20131;-63
2022/05/30 14:40:00;;;;;;;4.55;1.55;;;;;;;;;;4190099;34;20108;-64
2022/05/30 14:42:33;;;;;;;3.50;1.50;;;;;;;;;;4202020;34;20474;-64
2022/05/30 14:45:06;;;;;;;2.33;1.50;;;;;;;;;;4201688;34;20121;-63
2022/05/30 14:47:34;;;;;;;6.60;1.67;;;;;;;;;;4201822;34;20453;-64
2022/05/30 14:50:03;;;;;;;1.70;1.60;;;;;;;;;;4200911;34;20540;-62
2022/05/30 14:52:38;;;;;;;1.85;1.50;;;;;;;;;;4216557;34;20121;-66
2022/05/30 14:55:10;;;;;;;8.70;1.75;;;;;;;;;;4203565;34;20136;-65
2022/05/30 14:57:41;;;;;;;1.75;1.58;;;;;;;;;;4216604;34;20211;-64
2022/05/30 15:00:53;;;;;;;1.95;1.58;;;;;;;;;;4217017;34;20204;-64
2022/05/30 15:06:06;;;;;;;3.92;2.78;;;;;;;;;;4150074;34;20232;-61
2022/05/30 15:08:32;;;;;;;1.60;1.50;;;;;;;;;;4198762;34;20109;-62
2022/05/30 15:11:14;;;;;;;1.60;1.50;;;;;;;;;;4218180;34;20125;-64
2022/05/30 15:13:48;;;;;;;3.53;1.52;;;;;;;;;;4193550;34;20198;-63
2022/05/30 15:16:14;;;;;;;3.45;1.40;;;;;;;;;;4204222;34;20116;-62
2022/05/30 15:18:41;;;;;;;2.10;1.30;;;;;;;;;;4218356;34;20185;-63
2022/05/30 15:21:09;;;;;;;2.35;1.40;;;;;;;;;;4218252;34;20125;-66
2022/05/30 15:23:35;;;;;;;2.65;1.58;;;;;;;;;;4218240;34;20104;-62
2022/05/30 15:26:01;;;;;;;2.20;2.00;;;;;;;;;;4194055;34;20093;-64
2022/05/30 15:28:27;;;;;;;3.03;1.48;;;;;;;;;;4205495;34;20212;-64
2022/05/30 15:30:53;;;;;;;2.05;1.55;;;;;;;;;;4218408;34;20693;-64
2022/05/30 15:33:19;;;;;;;5.07;1.62;;;;;;;;;;4218567;34;20129;-62
2022/05/30 15:35:45;;;;;;;2.10;1.73;;;;;;;;;;4218488;34;20133;-65
2022/05/30 15:38:11;;;;;;;3.37;1.80;;;;;;;;;;4218400;34;20101;-65
2022/05/30 15:40:38;;;;;;;2.03;1.60;;;;;;;;;;4218754;34;20117;-65
2022/05/30 15:43:04;;;;;;;8.65;1.98;;;;;;;;;;4218295;34;20097;-64
2022/05/30 15:45:35;;;;;;;6.80;2.42;;;;;;;;;;4218380;34;20125;-64
2022/05/30 15:48:01;;;;;;;7.90;1.90;;;;;;;;;;4204208;34;20133;-64
2022/05/30 15:50:31;;;;;;;3.75;2.30;;;;;;;;;;4205214;34;20125;-64
2022/05/30 15:58:29;;;;;;;5.00;2.70;;;;;;;;;;4218133;34;20304;-64
2022/05/30 16:00:55;;;;;;;5.87;2.97;;;;;;;;;;4218098;34;20120;-64
2022/05/30 16:03:23;;;;;;;6.53;2.58;;;;;;;;;;4205248;34;20132;-65
2022/05/30 16:05:50;;;;;;;5.20;2.45;;;;;;;;;;4218127;34;20418;-65
2022/05/30 16:08:25;;;;;;;11.00;2.45;;;;;;;;;;4204924;34;20140;-66